sensor_id;sensor_type;location;lat;lon;timestamp;P1;durP1;ratioP1;P2;durP2;ratioP2
27857;SDS011;16852;51.446;6.528;2022-10-16T00:00:38;3.08;;;2.30;;
27857;SDS011;16852;51.446;6.528;2022-10-16T00:02:40;6.05;;;2.22;;
27857;SDS011;16852;51.446;6.528;2022-10-16T00:04:40;2.50;;;1.85;;
27857;SDS011;16852;51.446;6.528;2022-10-16T00:06:41;3.30;;;1.95;;
27857;SDS011;16852;51.446;6.528;2022-10-16T00:08:42;3.35;;;1.90;;
27857;SDS011;16852;51.446;6.528;2022-10-16T00:10:42;2.90;;;1.60;;
27857;SDS011;16852;51.446;6.528;2022-10-16T00:12:43;2.08;;;1.60;;
27857;SDS011;16852;51.446;6.528;2022-10-16T00:14:44;5.35;;;2.25;;
27857;SDS011;16852;51.446;6.528;2022-10-16T00:16:44;4.43;;;1.98;;
27857;SDS011;16852;51.446;6.528;2022-10-16T00:18:45;3.35;;;1.95;;
27857;SDS011;16852;51.446;6.528;2022-10-16T00:20:46;2.45;;;1.90;;
27857;SDS011;16852;51.446;6.528;2022-10-16T00:22:46;3.17;;;1.60;;
27857;SDS011;16852;51.446;6.528;2022-10-16T00:24:47;2.97;;;1.75;;
27857;SDS011;16852;51.446;6.528;2022-10-16T00:26:49;3.45;;;1.98;;
27857;SDS011;16852;51.446;6.528;2022-10-16T00:28:50;3.45;;;2.05;;
27857;SDS011;16852;51.446;6.528;2022-10-16T00:30:51;1.98;;;1.48;;
27857;SDS011;16852;51.446;6.528;2022-10-16T00:32:52;2.90;;;2.17;;
27857;SDS011;16852;51.446;6.528;2022-10-16T00:34:53;2.85;;;1.77;;
27857;SDS011;16852;51.446;6.528;2022-10-16T00:36:57;2.95;;;1.70;;
27857;SDS011;16852;51.446;6.528;2022-10-16T00:38:57;5.93;;;2.17;;
27857;SDS011;16852;51.446;6.528;2022-10-16T00:41:00;3.13;;;2.13;;
27857;SDS011;16852;51.446;6.528;2022-10-16T00:43:01;3.95;;;2.10;;
27857;SDS011;16852;51.446;6.528;2022-10-16T00:45:02;2.63;;;1.67;;
27857;SDS011;16852;51.446;6.528;2022-10-16T00:47:03;3.40;;;2.25;;
27857;SDS011;16852;51.446;6.528;2022-10-16T00:49:08;2.97;;;1.90;;
27857;SDS011;16852;51.446;6.528;2022-10-16T00:51:09;2.17;;;1.75;;
27857;SDS011;16852;51.446;6.528;2022-10-16T00:53:10;2.65;;;1.65;;
27857;SDS011;16852;51.446;6.528;2022-10-16T00:55:11;2.20;;;1.70;;
27857;SDS011;16852;51.446;6.528;2022-10-16T00:57:12;2.83;;;1.65;;
27857;SDS011;16852;51.446;6.528;2022-10-16T00:59:18;3.60;;;1.55;;
27857;SDS011;16852;51.446;6.528;2022-10-16T01:01:22;2.25;;;1.70;;
27857;SDS011;16852;51.446;6.528;2022-10-16T01:03:29;1.90;;;1.67;;
27857;SDS011;16852;51.446;6.528;2022-10-16T01:05:45;2.28;;;1.58;;
27857;SDS011;16852;51.446;6.528;2022-10-16T01:07:58;3.95;;;1.98;;
27857;SDS011;16852;51.446;6.528;2022-10-16T01:10:17;2.88;;;1.63;;
27857;SDS011;16852;51.446;6.528;2022-10-16T01:14:52;4.45;;;2.00;;
27857;SDS011;16852;51.446;6.528;2022-10-16T01:17:13;3.67;;;1.80;;
27857;SDS011;16852;51.446;6.528;2022-10-16T01:21:38;1.65;;;1.25;;
27857;SDS011;16852;51.446;6.528;2022-10-16T01:26:12;3.42;;;1.50;;
27857;SDS011;16852;51.446;6.528;2022-10-16T01:28:14;1.63;;;1.30;;
27857;SDS011;16852;51.446;6.528;2022-10-16T01:30:27;3.22;;;1.65;;
27857;SDS011;16852;51.446;6.528;2022-10-16T01:32:40;3.22;;;1.30;;
27857;SDS011;16852;51.446;6.528;2022-10-16T01:34:54;2.58;;;1.60;;
27857;SDS011;16852;51.446;6.528;2022-10-16T01:37:02;2.63;;;1.48;;
27857;SDS011;16852;51.446;6.528;2022-10-16T01:39:10;1.60;;;1.40;;
27857;SDS011;16852;51.446;6.528;2022-10-16T01:41:13;2.65;;;1.30;;
27857;SDS011;16852;51.446;6.528;2022-10-16T01:43:25;1.50;;;1.13;;
27857;SDS011;16852;51.446;6.528;2022-10-16T01:45:31;1.48;;;1.15;;
27857;SDS011;16852;51.446;6.528;2022-10-16T01:47:32;2.28;;;1.35;;
27857;SDS011;16852;51.446;6.528;2022-10-16T01:49:36;2.25;;;1.20;;
27857;SDS011;16852;51.446;6.528;2022-10-16T01:51:39;3.50;;;1.30;;
27857;SDS011;16852;51.446;6.528;2022-10-16T01:53:42;4.57;;;1.60;;
27857;SDS011;16852;51.446;6.528;2022-10-16T01:55:48;4.68;;;1.40;;
27857;SDS011;16852;51.446;6.528;2022-10-16T01:57:50;1.95;;;1.35;;
27857;SDS011;16852;51.446;6.528;2022-10-16T01:59:52;2.58;;;1.50;;
27857;SDS011;16852;51.446;6.528;2022-10-16T02:01:56;2.20;;;1.20;;
27857;SDS011;16852;51.446;6.528;2022-10-16T02:04:02;2.85;;;1.38;;
27857;SDS011;16852;51.446;6.528;2022-10-16T02:06:08;2.90;;;1.48;;
27857;SDS011;16852;51.446;6.528;2022-10-16T02:08:09;5.15;;;1.35;;
27857;SDS011;16852;51.446;6.528;2022-10-16T02:10:10;2.85;;;1.50;;
27857;SDS011;16852;51.446;6.528;2022-10-16T02:12:15;1.90;;;1.38;;
27857;SDS011;16852;51.446;6.528;2022-10-16T02:14:23;3.70;;;1.00;;
27857;SDS011;16852;51.446;6.528;2022-10-16T02:16:35;1.42;;;1.13;;
27857;SDS011;16852;51.446;6.528;2022-10-16T02:18:40;1.30;;;1.20;;
27857;SDS011;16852;51.446;6.528;2022-10-16T02:22:57;1.83;;;1.30;;
27857;SDS011;16852;51.446;6.528;2022-10-16T02:25:02;2.08;;;1.30;;
27857;SDS011;16852;51.446;6.528;2022-10-16T02:29:24;1.52;;;1.08;;
27857;SDS011;16852;51.446;6.528;2022-10-16T02:33:27;1.67;;;1.23;;
27857;SDS011;16852;51.446;6.528;2022-10-16T02:35:30;2.30;;;1.30;;
27857;SDS011;16852;51.446;6.528;2022-10-16T02:37:31;1.63;;;1.17;;
27857;SDS011;16852;51.446;6.528;2022-10-16T02:39:33;1.40;;;0.90;;
27857;SDS011;16852;51.446;6.528;2022-10-16T02:41:34;1.30;;;0.93;;
27857;SDS011;16852;51.446;6.528;2022-10-16T02:43:35;1.42;;;1.10;;
27857;SDS011;16852;51.446;6.528;2022-10-16T02:45:36;1.33;;;0.93;;
27857;SDS011;16852;51.446;6.528;2022-10-16T02:47:37;3.38;;;1.02;;
27857;SDS011;16852;51.446;6.528;2022-10-16T02:49:37;1.15;;;1.05;;
27857;SDS011;16852;51.446;6.528;2022-10-16T02:51:38;1.63;;;1.13;;
27857;SDS011;16852;51.446;6.528;2022-10-16T02:53:38;1.42;;;0.80;;
27857;SDS011;16852;51.446;6.528;2022-10-16T02:55:39;1.98;;;0.88;;
27857;SDS011;16852;51.446;6.528;2022-10-16T02:57:40;1.77;;;1.10;;
27857;SDS011;16852;51.446;6.528;2022-10-16T02:59:40;1.85;;;1.20;;
27857;SDS011;16852;51.446;6.528;2022-10-16T03:01:41;1.92;;;1.10;;
27857;SDS011;16852;51.446;6.528;2022-10-16T03:03:42;1.58;;;1.00;;
27857;SDS011;16852;51.446;6.528;2022-10-16T03:05:43;1.33;;;0.93;;
27857;SDS011;16852;51.446;6.528;2022-10-16T03:07:45;1.27;;;1.02;;
27857;SDS011;16852;51.446;6.528;2022-10-16T03:09:46;1.10;;;0.93;;
27857;SDS011;16852;51.446;6.528;2022-10-16T03:11:47;3.53;;;1.15;;
27857;SDS011;16852;51.446;6.528;2022-10-16T03:13:47;1.13;;;1.00;;
27857;SDS011;16852;51.446;6.528;2022-10-16T03:15:48;0.98;;;0.88;;
27857;SDS011;16852;51.446;6.528;2022-10-16T03:17:48;2.25;;;1.08;;
27857;SDS011;16852;51.446;6.528;2022-10-16T03:19:49;1.70;;;0.90;;
27857;SDS011;16852;51.446;6.528;2022-10-16T03:21:50;3.10;;;1.20;;
27857;SDS011;16852;51.446;6.528;2022-10-16T03:23:50;1.55;;;1.05;;
27857;SDS011;16852;51.446;6.528;2022-10-16T03:25:51;3.20;;;0.90;;
27857;SDS011;16852;51.446;6.528;2022-10-16T03:27:52;1.25;;;1.00;;
27857;SDS011;16852;51.446;6.528;2022-10-16T03:29:52;1.10;;;0.82;;
27857;SDS011;16852;51.446;6.528;2022-10-16T03:31:53;0.93;;;0.80;;
27857;SDS011;16852;51.446;6.528;2022-10-16T03:33:53;1.10;;;0.80;;
27857;SDS011;16852;51.446;6.528;2022-10-16T03:35:54;1.90;;;1.00;;
27857;SDS011;16852;51.446;6.528;2022-10-16T03:37:55;1.98;;;0.90;;
27857;SDS011;16852;51.446;6.528;2022-10-16T03:39:56;1.48;;;0.95;;
27857;SDS011;16852;51.446;6.528;2022-10-16T03:41:56;1.65;;;0.98;;
27857;SDS011;16852;51.446;6.528;2022-10-16T03:43:57;2.25;;;0.95;;
27857;SDS011;16852;51.446;6.528;2022-10-16T03:45:58;2.15;;;1.13;;
27857;SDS011;16852;51.446;6.528;2022-10-16T03:47:58;1.73;;;1.00;;
27857;SDS011;16852;51.446;6.528;2022-10-16T03:49:59;3.45;;;1.00;;
27857;SDS011;16852;51.446;6.528;2022-10-16T03:52:00;1.50;;;0.70;;
27857;SDS011;16852;51.446;6.528;2022-10-16T03:54:00;0.80;;;0.70;;
27857;SDS011;16852;51.446;6.528;2022-10-16T03:56:01;0.98;;;0.75;;
27857;SDS011;16852;51.446;6.528;2022-10-16T03:58:02;1.52;;;0.90;;
27857;SDS011;16852;51.446;6.528;2022-10-16T04:00:02;1.83;;;0.95;;
27857;SDS011;16852;51.446;6.528;2022-10-16T04:02:03;1.55;;;0.90;;
27857;SDS011;16852;51.446;6.528;2022-10-16T04:04:04;2.78;;;0.93;;
27857;SDS011;16852;51.446;6.528;2022-10-16T04:06:04;1.30;;;0.93;;
27857;SDS011;16852;51.446;6.528;2022-10-16T04:08:05;0.95;;;0.80;;
27857;SDS011;16852;51.446;6.528;2022-10-16T04:10:06;2.25;;;0.90;;
27857;SDS011;16852;51.446;6.528;2022-10-16T04:12:07;1.05;;;0.80;;
27857;SDS011;16852;51.446;6.528;2022-10-16T04:14:08;1.90;;;0.75;;
27857;SDS011;16852;51.446;6.528;2022-10-16T04:16:09;2.70;;;1.27;;
27857;SDS011;16852;51.446;6.528;2022-10-16T04:18:09;1.00;;;0.63;;
27857;SDS011;16852;51.446;6.528;2022-10-16T04:20:10;2.90;;;0.90;;
27857;SDS011;16852;51.446;6.528;2022-10-16T04:22:10;1.58;;;0.60;;
27857;SDS011;16852;51.446;6.528;2022-10-16T04:24:11;1.80;;;0.98;;
27857;SDS011;16852;51.446;6.528;2022-10-16T04:26:12;1.70;;;1.00;;
27857;SDS011;16852;51.446;6.528;2022-10-16T04:28:12;1.42;;;1.00;;
27857;SDS011;16852;51.446;6.528;2022-10-16T04:30:13;1.75;;;1.05;;
27857;SDS011;16852;51.446;6.528;2022-10-16T04:32:14;1.75;;;0.93;;
27857;SDS011;16852;51.446;6.528;2022-10-16T04:34:14;3.42;;;1.35;;
27857;SDS011;16852;51.446;6.528;2022-10-16T04:36:15;3.70;;;1.05;;
27857;SDS011;16852;51.446;6.528;2022-10-16T04:38:15;1.02;;;0.75;;
27857;SDS011;16852;51.446;6.528;2022-10-16T04:40:16;2.28;;;1.00;;
27857;SDS011;16852;51.446;6.528;2022-10-16T04:42:17;1.30;;;1.00;;
27857;SDS011;16852;51.446;6.528;2022-10-16T04:44:17;3.97;;;0.65;;
27857;SDS011;16852;51.446;6.528;2022-10-16T04:46:18;1.70;;;0.90;;
27857;SDS011;16852;51.446;6.528;2022-10-16T04:48:19;1.02;;;0.73;;
27857;SDS011;16852;51.446;6.528;2022-10-16T04:50:19;2.63;;;0.95;;
27857;SDS011;16852;51.446;6.528;2022-10-16T04:52:20;1.50;;;0.98;;
27857;SDS011;16852;51.446;6.528;2022-10-16T04:54:24;4.63;;;1.05;;
27857;SDS011;16852;51.446;6.528;2022-10-16T04:56:24;1.52;;;0.95;;
27857;SDS011;16852;51.446;6.528;2022-10-16T04:58:25;1.15;;;0.80;;
27857;SDS011;16852;51.446;6.528;2022-10-16T05:00:26;2.00;;;0.98;;
27857;SDS011;16852;51.446;6.528;2022-10-16T05:02:26;1.85;;;0.82;;
27857;SDS011;16852;51.446;6.528;2022-10-16T05:04:27;0.75;;;0.60;;
27857;SDS011;16852;51.446;6.528;2022-10-16T05:06:27;1.05;;;0.80;;
27857;SDS011;16852;51.446;6.528;2022-10-16T05:08:28;1.10;;;0.70;;
27857;SDS011;16852;51.446;6.528;2022-10-16T05:10:29;1.05;;;0.70;;
27857;SDS011;16852;51.446;6.528;2022-10-16T05:12:30;1.05;;;0.60;;
27857;SDS011;16852;51.446;6.528;2022-10-16T05:14:30;0.65;;;0.65;;
27857;SDS011;16852;51.446;6.528;2022-10-16T05:16:31;3.42;;;1.10;;
27857;SDS011;16852;51.446;6.528;2022-10-16T05:18:31;0.70;;;0.70;;
27857;SDS011;16852;51.446;6.528;2022-10-16T05:20:32;1.13;;;0.77;;
27857;SDS011;16852;51.446;6.528;2022-10-16T05:22:33;1.20;;;0.80;;
27857;SDS011;16852;51.446;6.528;2022-10-16T05:24:33;1.17;;;1.00;;
27857;SDS011;16852;51.446;6.528;2022-10-16T05:26:34;0.98;;;0.63;;
27857;SDS011;16852;51.446;6.528;2022-10-16T05:28:35;1.15;;;0.70;;
27857;SDS011;16852;51.446;6.528;2022-10-16T05:30:36;2.92;;;0.90;;
27857;SDS011;16852;51.446;6.528;2022-10-16T05:32:37;1.13;;;0.70;;
27857;SDS011;16852;51.446;6.528;2022-10-16T05:34:38;3.72;;;0.98;;
27857;SDS011;16852;51.446;6.528;2022-10-16T05:36:39;1.23;;;0.90;;
27857;SDS011;16852;51.446;6.528;2022-10-16T05:38:39;1.77;;;0.98;;
27857;SDS011;16852;51.446;6.528;2022-10-16T05:40:40;1.15;;;0.80;;
27857;SDS011;16852;51.446;6.528;2022-10-16T05:42:40;2.10;;;1.10;;
27857;SDS011;16852;51.446;6.528;2022-10-16T05:44:41;1.55;;;0.70;;
27857;SDS011;16852;51.446;6.528;2022-10-16T05:46:42;1.25;;;0.90;;
27857;SDS011;16852;51.446;6.528;2022-10-16T05:48:42;1.27;;;0.88;;
27857;SDS011;16852;51.446;6.528;2022-10-16T05:50:43;1.17;;;1.00;;
27857;SDS011;16852;51.446;6.528;2022-10-16T05:52:44;7.78;;;1.20;;
27857;SDS011;16852;51.446;6.528;2022-10-16T05:54:44;0.80;;;0.80;;
27857;SDS011;16852;51.446;6.528;2022-10-16T05:56:45;3.17;;;0.90;;
27857;SDS011;16852;51.446;6.528;2022-10-16T05:58:46;2.60;;;1.20;;
27857;SDS011;16852;51.446;6.528;2022-10-16T06:00:59;2.85;;;0.70;;
27857;SDS011;16852;51.446;6.528;2022-10-16T06:03:01;3.58;;;0.85;;
27857;SDS011;16852;51.446;6.528;2022-10-16T06:05:02;1.08;;;0.70;;
27857;SDS011;16852;51.446;6.528;2022-10-16T06:07:03;2.83;;;0.85;;
27857;SDS011;16852;51.446;6.528;2022-10-16T06:09:04;1.58;;;0.93;;
27857;SDS011;16852;51.446;6.528;2022-10-16T06:11:05;1.40;;;0.90;;
27857;SDS011;16852;51.446;6.528;2022-10-16T06:13:08;1.27;;;0.88;;
27857;SDS011;16852;51.446;6.528;2022-10-16T06:15:08;1.75;;;1.00;;
27857;SDS011;16852;51.446;6.528;2022-10-16T06:17:09;0.90;;;0.80;;
27857;SDS011;16852;51.446;6.528;2022-10-16T06:19:10;0.93;;;0.80;;
27857;SDS011;16852;51.446;6.528;2022-10-16T06:21:12;1.15;;;0.85;;
27857;SDS011;16852;51.446;6.528;2022-10-16T06:23:16;3.08;;;1.20;;
27857;SDS011;16852;51.446;6.528;2022-10-16T06:25:16;1.98;;;0.93;;
27857;SDS011;16852;51.446;6.528;2022-10-16T06:27:17;1.55;;;1.00;;
27857;SDS011;16852;51.446;6.528;2022-10-16T06:29:17;2.67;;;1.15;;
27857;SDS011;16852;51.446;6.528;2022-10-16T06:31:18;1.90;;;1.30;;
27857;SDS011;16852;51.446;6.528;2022-10-16T06:33:19;2.60;;;1.20;;
27857;SDS011;16852;51.446;6.528;2022-10-16T06:35:19;5.15;;;1.05;;
27857;SDS011;16852;51.446;6.528;2022-10-16T06:37:20;1.33;;;1.08;;
27857;SDS011;16852;51.446;6.528;2022-10-16T06:39:22;1.40;;;1.08;;
27857;SDS011;16852;51.446;6.528;2022-10-16T06:41:22;1.48;;;1.15;;
27857;SDS011;16852;51.446;6.528;2022-10-16T06:43:23;2.83;;;0.95;;
27857;SDS011;16852;51.446;6.528;2022-10-16T06:45:24;2.85;;;1.08;;
27857;SDS011;16852;51.446;6.528;2022-10-16T06:47:25;1.58;;;1.10;;
27857;SDS011;16852;51.446;6.528;2022-10-16T06:49:27;2.50;;;1.23;;
27857;SDS011;16852;51.446;6.528;2022-10-16T06:51:28;2.67;;;1.40;;
27857;SDS011;16852;51.446;6.528;2022-10-16T06:53:30;2.33;;;1.10;;
27857;SDS011;16852;51.446;6.528;2022-10-16T06:57:32;2.35;;;1.33;;
27857;SDS011;16852;51.446;6.528;2022-10-16T06:59:33;1.33;;;1.23;;
27857;SDS011;16852;51.446;6.528;2022-10-16T07:01:34;2.63;;;1.10;;
27857;SDS011;16852;51.446;6.528;2022-10-16T07:03:38;1.77;;;1.42;;
27857;SDS011;16852;51.446;6.528;2022-10-16T07:05:40;4.03;;;1.33;;
27857;SDS011;16852;51.446;6.528;2022-10-16T07:07:41;3.35;;;1.60;;
27857;SDS011;16852;51.446;6.528;2022-10-16T07:09:42;2.83;;;1.38;;
27857;SDS011;16852;51.446;6.528;2022-10-16T07:11:43;1.67;;;1.20;;
27857;SDS011;16852;51.446;6.528;2022-10-16T07:13:44;2.45;;;1.40;;
27857;SDS011;16852;51.446;6.528;2022-10-16T07:15:45;1.27;;;1.10;;
27857;SDS011;16852;51.446;6.528;2022-10-16T07:17:46;1.90;;;1.30;;
27857;SDS011;16852;51.446;6.528;2022-10-16T07:19:46;1.63;;;1.50;;
27857;SDS011;16852;51.446;6.528;2022-10-16T07:21:47;1.30;;;1.17;;
27857;SDS011;16852;51.446;6.528;2022-10-16T07:23:51;2.70;;;1.48;;
27857;SDS011;16852;51.446;6.528;2022-10-16T07:25:53;2.40;;;1.10;;
27857;SDS011;16852;51.446;6.528;2022-10-16T07:27:54;1.75;;;1.35;;
27857;SDS011;16852;51.446;6.528;2022-10-16T07:29:56;3.63;;;1.45;;
27857;SDS011;16852;51.446;6.528;2022-10-16T07:31:56;1.42;;;1.27;;
27857;SDS011;16852;51.446;6.528;2022-10-16T07:33:58;3.38;;;1.80;;
27857;SDS011;16852;51.446;6.528;2022-10-16T07:35:59;3.90;;;1.38;;
27857;SDS011;16852;51.446;6.528;2022-10-16T07:38:00;3.42;;;1.70;;
27857;SDS011;16852;51.446;6.528;2022-10-16T07:40:00;3.03;;;1.38;;
27857;SDS011;16852;51.446;6.528;2022-10-16T07:42:01;0.95;;;0.90;;
27857;SDS011;16852;51.446;6.528;2022-10-16T07:44:02;2.00;;;1.00;;
27857;SDS011;16852;51.446;6.528;2022-10-16T07:46:03;0.90;;;0.90;;
27857;SDS011;16852;51.446;6.528;2022-10-16T07:48:04;1.05;;;0.85;;
27857;SDS011;16852;51.446;6.528;2022-10-16T07:50:05;1.48;;;1.02;;
27857;SDS011;16852;51.446;6.528;2022-10-16T07:52:05;5.10;;;1.25;;
27857;SDS011;16852;51.446;6.528;2022-10-16T07:54:07;1.48;;;0.95;;
27857;SDS011;16852;51.446;6.528;2022-10-16T07:56:08;1.27;;;0.75;;
27857;SDS011;16852;51.446;6.528;2022-10-16T07:58:09;2.25;;;0.93;;
27857;SDS011;16852;51.446;6.528;2022-10-16T08:00:10;0.85;;;0.80;;
27857;SDS011;16852;51.446;6.528;2022-10-16T08:02:13;1.42;;;0.80;;
27857;SDS011;16852;51.446;6.528;2022-10-16T08:04:14;1.27;;;0.82;;
27857;SDS011;16852;51.446;6.528;2022-10-16T08:06:15;2.17;;;0.93;;
27857;SDS011;16852;51.446;6.528;2022-10-16T08:08:16;1.90;;;0.90;;
27857;SDS011;16852;51.446;6.528;2022-10-16T08:10:18;1.50;;;0.80;;
27857;SDS011;16852;51.446;6.528;2022-10-16T08:12:21;1.17;;;0.85;;
27857;SDS011;16852;51.446;6.528;2022-10-16T08:14:21;1.33;;;0.85;;
27857;SDS011;16852;51.446;6.528;2022-10-16T08:16:22;1.27;;;0.80;;
27857;SDS011;16852;51.446;6.528;2022-10-16T08:18:23;1.23;;;0.73;;
27857;SDS011;16852;51.446;6.528;2022-10-16T08:20:23;0.88;;;0.63;;
27857;SDS011;16852;51.446;6.528;2022-10-16T08:22:24;2.47;;;1.08;;
27857;SDS011;16852;51.446;6.528;2022-10-16T08:24:25;0.93;;;0.50;;
27857;SDS011;16852;51.446;6.528;2022-10-16T08:26:26;1.50;;;0.70;;
27857;SDS011;16852;51.446;6.528;2022-10-16T08:28:27;1.35;;;0.70;;
27857;SDS011;16852;51.446;6.528;2022-10-16T08:30:28;1.60;;;0.70;;
27857;SDS011;16852;51.446;6.528;2022-10-16T08:32:28;2.70;;;0.98;;
27857;SDS011;16852;51.446;6.528;2022-10-16T08:34:29;1.25;;;0.50;;
27857;SDS011;16852;51.446;6.528;2022-10-16T08:36:29;2.58;;;1.10;;
27857;SDS011;16852;51.446;6.528;2022-10-16T08:38:30;1.48;;;0.73;;
27857;SDS011;16852;51.446;6.528;2022-10-16T08:40:31;2.30;;;0.90;;
27857;SDS011;16852;51.446;6.528;2022-10-16T08:49:22;1.52;;;0.80;;
27857;SDS011;16852;51.446;6.528;2022-10-16T08:53:48;1.65;;;0.63;;
27857;SDS011;16852;51.446;6.528;2022-10-16T08:55:53;1.38;;;0.90;;
27857;SDS011;16852;51.446;6.528;2022-10-16T08:57:54;1.20;;;0.75;;
27857;SDS011;16852;51.446;6.528;2022-10-16T08:59:55;3.50;;;0.85;;
27857;SDS011;16852;51.446;6.528;2022-10-16T09:02:19;2.22;;;0.80;;
27857;SDS011;16852;51.446;6.528;2022-10-16T09:12:00;2.65;;;0.95;;
27857;SDS011;16852;51.446;6.528;2022-10-16T09:14:23;2.75;;;0.75;;
27857;SDS011;16852;51.446;6.528;2022-10-16T09:16:41;2.90;;;0.90;;
27857;SDS011;16852;51.446;6.528;2022-10-16T09:18:58;4.05;;;0.90;;
27857;SDS011;16852;51.446;6.528;2022-10-16T09:21:10;3.53;;;1.00;;
27857;SDS011;16852;51.446;6.528;2022-10-16T09:23:28;1.85;;;0.70;;
27857;SDS011;16852;51.446;6.528;2022-10-16T09:25:30;2.72;;;1.00;;
27857;SDS011;16852;51.446;6.528;2022-10-16T09:27:32;3.92;;;1.13;;
27857;SDS011;16852;51.446;6.528;2022-10-16T09:29:32;2.67;;;0.75;;
27857;SDS011;16852;51.446;6.528;2022-10-16T09:31:33;2.85;;;0.88;;
27857;SDS011;16852;51.446;6.528;2022-10-16T09:33:36;2.58;;;0.95;;
27857;SDS011;16852;51.446;6.528;2022-10-16T09:35:40;4.78;;;1.17;;
27857;SDS011;16852;51.446;6.528;2022-10-16T09:37:48;2.17;;;1.20;;
27857;SDS011;16852;51.446;6.528;2022-10-16T09:39:51;1.42;;;0.65;;
27857;SDS011;16852;51.446;6.528;2022-10-16T09:43:55;1.42;;;0.68;;
27857;SDS011;16852;51.446;6.528;2022-10-16T09:46:02;2.58;;;0.90;;
27857;SDS011;16852;51.446;6.528;2022-10-16T09:48:12;2.05;;;0.63;;
27857;SDS011;16852;51.446;6.528;2022-10-16T09:50:23;2.17;;;0.90;;
27857;SDS011;16852;51.446;6.528;2022-10-16T09:52:26;1.90;;;0.90;;
27857;SDS011;16852;51.446;6.528;2022-10-16T09:54:26;2.53;;;1.00;;
27857;SDS011;16852;51.446;6.528;2022-10-16T09:56:31;4.05;;;0.90;;
27857;SDS011;16852;51.446;6.528;2022-10-16T09:58:33;2.15;;;0.90;;
27857;SDS011;16852;51.446;6.528;2022-10-16T10:00:34;1.85;;;0.50;;
27857;SDS011;16852;51.446;6.528;2022-10-16T10:02:35;2.03;;;0.90;;
27857;SDS011;16852;51.446;6.528;2022-10-16T10:04:59;0.45;;;0.43;;
27857;SDS011;16852;51.446;6.528;2022-10-16T10:06:59;1.63;;;0.77;;
27857;SDS011;16852;51.446;6.528;2022-10-16T10:11:17;3.08;;;0.98;;
27857;SDS011;16852;51.446;6.528;2022-10-16T10:13:21;1.35;;;0.60;;
27857;SDS011;16852;51.446;6.528;2022-10-16T10:15:24;1.73;;;0.43;;
27857;SDS011;16852;51.446;6.528;2022-10-16T10:17:28;0.90;;;0.40;;
27857;SDS011;16852;51.446;6.528;2022-10-16T10:19:28;0.98;;;0.57;;
27857;SDS011;16852;51.446;6.528;2022-10-16T10:21:29;1.02;;;0.50;;
27857;SDS011;16852;51.446;6.528;2022-10-16T10:23:33;0.55;;;0.45;;
27857;SDS011;16852;51.446;6.528;2022-10-16T10:33:31;2.10;;;0.73;;
27857;SDS011;16852;51.446;6.528;2022-10-16T10:43:08;4.30;;;1.10;;
27857;SDS011;16852;51.446;6.528;2022-10-16T10:45:27;2.28;;;0.60;;
27857;SDS011;16852;51.446;6.528;2022-10-16T10:58:49;2.20;;;0.65;;
27857;SDS011;16852;51.446;6.528;2022-10-16T11:01:12;3.65;;;0.90;;
27857;SDS011;16852;51.446;6.528;2022-10-16T11:03:21;2.97;;;0.80;;
27857;SDS011;16852;51.446;6.528;2022-10-16T11:05:45;2.95;;;0.82;;
27857;SDS011;16852;51.446;6.528;2022-10-16T11:08:01;3.40;;;0.85;;
27857;SDS011;16852;51.446;6.528;2022-10-16T11:12:46;1.98;;;0.70;;
27857;SDS011;16852;51.446;6.528;2022-10-16T11:17:16;1.75;;;0.60;;
27857;SDS011;16852;51.446;6.528;2022-10-16T11:21:35;3.80;;;0.60;;
27857;SDS011;16852;51.446;6.528;2022-10-16T11:25:56;1.10;;;0.50;;
27857;SDS011;16852;51.446;6.528;2022-10-16T11:28:02;2.60;;;0.70;;
27857;SDS011;16852;51.446;6.528;2022-10-16T11:30:14;4.50;;;1.10;;
27857;SDS011;16852;51.446;6.528;2022-10-16T11:32:32;2.75;;;0.77;;
27857;SDS011;16852;51.446;6.528;2022-10-16T11:34:50;3.15;;;0.60;;
27857;SDS011;16852;51.446;6.528;2022-10-16T11:39:19;1.50;;;0.60;;
27857;SDS011;16852;51.446;6.528;2022-10-16T11:41:38;1.08;;;0.50;;
27857;SDS011;16852;51.446;6.528;2022-10-16T11:43:46;1.80;;;0.70;;
27857;SDS011;16852;51.446;6.528;2022-10-16T11:45:55;2.15;;;0.50;;
27857;SDS011;16852;51.446;6.528;2022-10-16T11:48:18;1.35;;;0.50;;
27857;SDS011;16852;51.446;6.528;2022-10-16T11:52:36;2.15;;;0.70;;
27857;SDS011;16852;51.446;6.528;2022-10-16T11:57:08;2.53;;;0.57;;
27857;SDS011;16852;51.446;6.528;2022-10-16T12:00:03;1.48;;;0.60;;
27857;SDS011;16852;51.446;6.528;2022-10-16T12:01:57;3.03;;;0.68;;
27857;SDS011;16852;51.446;6.528;2022-10-16T12:06:35;3.28;;;0.80;;
27857;SDS011;16852;51.446;6.528;2022-10-16T12:08:46;3.35;;;0.70;;
27857;SDS011;16852;51.446;6.528;2022-10-16T12:10:48;4.07;;;1.20;;
27857;SDS011;16852;51.446;6.528;2022-10-16T12:12:48;1.90;;;0.77;;
27857;SDS011;16852;51.446;6.528;2022-10-16T12:14:59;4.93;;;0.75;;
27857;SDS011;16852;51.446;6.528;2022-10-16T12:17:04;2.25;;;0.52;;
27857;SDS011;16852;51.446;6.528;2022-10-16T12:19:35;1.90;;;0.50;;
27857;SDS011;16852;51.446;6.528;2022-10-16T12:21:36;1.65;;;0.57;;
27857;SDS011;16852;51.446;6.528;2022-10-16T12:23:37;1.45;;;0.75;;
27857;SDS011;16852;51.446;6.528;2022-10-16T12:25:53;2.45;;;0.77;;
27857;SDS011;16852;51.446;6.528;2022-10-16T12:28:05;1.35;;;0.40;;
27857;SDS011;16852;51.446;6.528;2022-10-16T12:30:20;1.27;;;0.40;;
27857;SDS011;16852;51.446;6.528;2022-10-16T12:32:33;0.90;;;0.47;;
27857;SDS011;16852;51.446;6.528;2022-10-16T12:34:41;1.73;;;0.55;;
27857;SDS011;16852;51.446;6.528;2022-10-16T12:36:43;2.40;;;0.52;;
27857;SDS011;16852;51.446;6.528;2022-10-16T12:38:50;2.35;;;0.77;;
27857;SDS011;16852;51.446;6.528;2022-10-16T12:40:59;0.30;;;0.25;;
27857;SDS011;16852;51.446;6.528;2022-10-16T12:43:13;2.15;;;0.50;;
27857;SDS011;16852;51.446;6.528;2022-10-16T12:49:36;1.63;;;0.52;;
27857;SDS011;16852;51.446;6.528;2022-10-16T12:51:38;1.35;;;0.65;;
27857;SDS011;16852;51.446;6.528;2022-10-16T12:53:40;2.00;;;0.65;;
27857;SDS011;16852;51.446;6.528;2022-10-16T12:55:42;1.90;;;0.47;;
27857;SDS011;16852;51.446;6.528;2022-10-16T12:58:38;1.23;;;0.60;;
27857;SDS011;16852;51.446;6.528;2022-10-16T13:00:56;1.92;;;0.50;;
27857;SDS011;16852;51.446;6.528;2022-10-16T13:08:03;1.83;;;0.63;;
27857;SDS011;16852;51.446;6.528;2022-10-16T13:10:37;3.90;;;0.95;;
27857;SDS011;16852;51.446;6.528;2022-10-16T13:12:49;1.27;;;0.63;;
27857;SDS011;16852;51.446;6.528;2022-10-16T13:18:19;0.93;;;0.70;;
27857;SDS011;16852;51.446;6.528;2022-10-16T13:27:50;1.98;;;0.52;;
27857;SDS011;16852;51.446;6.528;2022-10-16T13:32:15;0.82;;;0.57;;
27857;SDS011;16852;51.446;6.528;2022-10-16T13:34:17;1.70;;;0.52;;
27857;SDS011;16852;51.446;6.528;2022-10-16T13:36:24;1.70;;;0.75;;
27857;SDS011;16852;51.446;6.528;2022-10-16T13:38:30;1.27;;;0.50;;
27857;SDS011;16852;51.446;6.528;2022-10-16T13:40:32;0.68;;;0.30;;
27857;SDS011;16852;51.446;6.528;2022-10-16T13:42:34;1.08;;;0.50;;
27857;SDS011;16852;51.446;6.528;2022-10-16T13:44:48;1.35;;;0.63;;
27857;SDS011;16852;51.446;6.528;2022-10-16T13:47:00;1.45;;;0.52;;
27857;SDS011;16852;51.446;6.528;2022-10-16T13:49:05;0.88;;;0.40;;
27857;SDS011;16852;51.446;6.528;2022-10-16T13:51:14;1.70;;;0.80;;
27857;SDS011;16852;51.446;6.528;2022-10-16T13:53:16;2.90;;;0.70;;
27857;SDS011;16852;51.446;6.528;2022-10-16T13:55:17;1.52;;;0.75;;
27857;SDS011;16852;51.446;6.528;2022-10-16T13:57:18;1.33;;;0.60;;
27857;SDS011;16852;51.446;6.528;2022-10-16T13:59:24;3.17;;;0.60;;
27857;SDS011;16852;51.446;6.528;2022-10-16T14:01:27;2.40;;;0.90;;
27857;SDS011;16852;51.446;6.528;2022-10-16T14:03:30;0.93;;;0.30;;
27857;SDS011;16852;51.446;6.528;2022-10-16T14:05:33;2.00;;;0.50;;
27857;SDS011;16852;51.446;6.528;2022-10-16T14:07:34;1.95;;;0.50;;
27857;SDS011;16852;51.446;6.528;2022-10-16T14:09:36;1.05;;;0.30;;
27857;SDS011;16852;51.446;6.528;2022-10-16T14:11:44;0.57;;;0.40;;